Time;durP1;ratioP1;P1;durP2;ratioP2;P2;SDS_P1;SDS_P2;PMS_P1;PMS_P2;Temp;Humidity;BMP_temperature;BMP_pressure;BME280_temperature;BME280_humidity;BME280_pressure;Samples;Min_cycle;Max_cycle;Signal;HPM_P1;HPM_P2
2021/05/29 00:01:20;;;;;;;0.35;0.35;;;17.60;84.40;;;;;;4157881;28;20119;-50
2021/05/29 00:03:42;;;;;;;0.50;0.50;;;17.60;84.40;;;;;;4157901;28;20530;-45
2021/05/29 00:06:05;;;;;;;0.00;0.00;;;17.60;84.40;;;;;;4157983;28;20570;-49
2021/05/29 00:08:27;;;;;;;0.10;0.10;;;17.60;84.40;;;;;;4157925;28;20152;-50
2021/05/29 00:10:51;;;;;;;0.20;0.20;;;17.60;84.40;;;;;;4166039;28;20057;-47
2021/05/29 00:13:13;;;;;;;4.28;1.38;;;17.60;84.40;;;;;;4161091;28;20052;-49
2021/05/29 00:15:35;;;;;;;0.55;0.52;;;17.60;84.40;;;;;;4161053;28;20041;-46
2021/05/29 00:17:57;;;;;;;0.85;0.85;;;17.60;84.40;;;;;;4175901;28;20495;-49
2021/05/29 00:20:19;;;;;;;0.03;0.03;;;17.60;84.40;;;;;;4177402;28;20053;-46
2021/05/29 00:22:43;;;;;;;0.00;0.00;;;17.60;84.60;;;;;;4177217;28;20049;-45
2021/05/29 00:25:07;;;;;;;0.10;0.10;;;17.60;84.90;;;;;;4166885;28;20045;-48
2021/05/29 00:27:28;;;;;;;0.00;0.00;;;17.60;84.90;;;;;;4160823;28;20049;-45
2021/05/29 00:29:50;;;;;;;0.08;0.08;;;17.60;84.80;;;;;;4163338;28;20041;-45
2021/05/29 00:32:12;;;;;;;0.00;0.00;;;17.60;84.80;;;;;;4176756;28;20045;-49
2021/05/29 00:34:33;;;;;;;0.00;0.00;;;17.60;84.80;;;;;;4172494;28;20483;-45
2021/05/29 00:36:54;;;;;;;;;;;17.60;84.80;;;;;;4161093;28;20056;-46
2021/05/29 00:39:16;;;;;;;0.00;0.00;;;17.50;84.80;;;;;;4160716;28;20387;-45
2021/05/29 00:41:39;;;;;;;0.00;0.00;;;17.60;84.80;;;;;;4160324;28;20415;-47
2021/05/29 00:44:00;;;;;;;0.03;0.03;;;17.60;84.70;;;;;;4160579;28;20057;-47
2021/05/29 00:46:22;;;;;;;0.00;0.00;;;17.60;84.70;;;;;;4173106;28;20514;-46
2021/05/29 00:48:44;;;;;;;0.43;0.30;;;17.60;84.70;;;;;;4160510;28;20569;-47
2021/05/29 00:51:07;;;;;;;0.10;0.10;;;17.60;84.70;;;;;;4175591;28;20057;-46
2021/05/29 00:53:30;;;;;;;0.05;0.05;;;17.60;84.70;;;;;;4176883;28;20053;-48
2021/05/29 00:55:52;;;;;;;0.00;0.00;;;17.60;84.60;;;;;;4160017;28;20052;-50
2021/05/29 00:58:14;;;;;;;0.10;0.10;;;17.60;84.60;;;;;;4158825;28;20049;-47
2021/05/29 01:00:36;;;;;;;0.22;0.22;;;17.60;84.60;;;;;;4160267;28;20053;-45
2021/05/29 01:02:57;;;;;;;0.43;0.43;;;17.60;84.60;;;;;;4160331;28;20047;-45
2021/05/29 01:05:20;;;;;;;0.20;0.20;;;17.60;84.60;;;;;;4172768;28;20132;-48
2021/05/29 01:07:46;;;;;;;0.47;0.47;;;17.50;84.60;;;;;;4175370;28;20068;-49
2021/05/29 01:10:09;;;;;;;0.70;0.70;;;17.60;84.60;;;;;;4173733;28;20056;-48
2021/05/29 01:12:31;;;;;;;0.00;0.00;;;17.60;84.60;;;;;;4176643;28;20414;-47
2021/05/29 01:14:55;;;;;;;0.10;0.10;;;17.60;84.60;;;;;;4167231;28;20107;-45
2021/05/29 01:17:42;;;;;;;0.40;0.40;;;17.60;84.60;;;;;;4158930;28;20056;-47
2021/05/29 01:20:24;;;;;;;0.57;0.57;;;17.60;84.60;;;;;;4144523;28;20083;-47
2021/05/29 01:23:13;;;;;;;0.43;0.43;;;17.60;84.60;;;;;;4159473;28;20061;-46
2021/05/29 01:25:38;;;;;;;0.95;0.55;;;17.50;84.60;;;;;;4175422;28;20057;-46
2021/05/29 01:28:03;;;;;;;0.38;0.38;;;17.50;85.40;;;;;;4176300;28;20071;-46
2021/05/29 01:30:26;;;;;;;0.45;0.45;;;17.50;84.60;;;;;;4176008;28;20106;-45
2021/05/29 01:32:48;;;;;;;0.00;0.00;;;17.50;84.60;;;;;;4176460;28;20106;-45
2021/05/29 01:35:12;;;;;;;0.20;0.20;;;17.50;84.60;;;;;;4174418;28;20495;-48
2021/05/29 01:37:33;;;;;;;0.00;0.00;;;17.50;84.60;;;;;;4176082;28;20098;-48
2021/05/29 01:39:57;;;;;;;0.65;0.65;;;17.50;84.60;;;;;;4175968;28;20072;-45
2021/05/29 01:42:20;;;;;;;0.20;0.20;;;17.50;84.60;;;;;;4175830;28;20122;-45
2021/05/29 01:44:42;;;;;;;0.25;0.25;;;17.50;85.50;;;;;;4175539;28;20055;-46
2021/05/29 01:47:05;;;;;;;0.68;0.68;;;17.50;84.70;;;;;;4175937;28;20061;-47
2021/05/29 01:49:26;;;;;;;0.00;0.00;;;17.50;84.60;;;;;;4175956;28;20124;-47
2021/05/29 01:51:48;;;;;;;0.47;0.47;;;17.50;84.70;;;;;;4175464;28;20553;-45
2021/05/29 01:54:13;;;;;;;0.00;0.00;;;17.50;84.70;;;;;;4170129;28;20060;-47
2021/05/29 01:56:36;;;;;;;0.13;0.13;;;17.50;84.70;;;;;;4158058;28;20486;-45
2021/05/29 01:58:57;;;;;;;1.55;0.88;;;17.50;84.70;;;;;;4161123;28;20045;-47
2021/05/29 02:01:19;;;;;;;0.00;0.00;;;17.50;84.70;;;;;;4175711;28;20127;-46
2021/05/29 02:03:44;;;;;;;0.00;0.00;;;17.50;84.70;;;;;;4174402;28;20045;-46
2021/05/29 02:06:06;;;;;;;0.10;0.10;;;17.50;84.80;;;;;;4159263;28;20111;-49
2021/05/29 02:08:27;;;;;;;0.20;0.20;;;17.50;85.00;;;;;;4159296;28;20567;-49
2021/05/29 02:10:54;;;;;;;1.10;1.00;;;17.50;84.90;;;;;;4159072;28;20081;-45
2021/05/29 02:13:23;;;;;;;0.22;0.22;;;17.50;84.80;;;;;;4175713;28;20458;-47
2021/05/29 02:15:45;;;;;;;0.13;0.13;;;17.50;84.80;;;;;;4174602;28;20057;-48
2021/05/29 02:18:08;;;;;;;0.00;0.00;;;17.50;84.90;;;;;;4161399;28;20057;-46
2021/05/29 02:20:39;;;;;;;0.10;0.10;;;17.50;85.00;;;;;;4158991;28;20060;-45
2021/05/29 02:23:01;;;;;;;0.08;0.08;;;17.50;85.00;;;;;;4158846;28;20049;-47
2021/05/29 02:25:23;;;;;;;0.47;0.47;;;17.50;85.00;;;;;;4159187;28;20404;-45
2021/05/29 02:27:44;;;;;;;;;;;17.40;85.00;;;;;;4159304;28;20143;-47
2021/05/29 02:30:08;;;;;;;0.00;0.00;;;17.40;85.10;;;;;;4169724;28;19978;-45
2021/05/29 02:32:30;;;;;;;0.52;0.30;;;17.40;85.10;;;;;;4170338;28;20053;-45
2021/05/29 02:34:51;;;;;;;;;;;17.40;85.10;;;;;;4159690;28;20051;-45
2021/05/29 02:37:13;;;;;;;0.00;0.00;;;17.40;85.20;;;;;;4158969;28;19931;-46
2021/05/29 02:39:34;;;;;;;0.17;0.17;;;17.40;85.20;;;;;;4160056;28;20045;-45
2021/05/29 02:41:55;;;;;;;;;;;17.40;85.30;;;;;;4159079;28;20670;-47
2021/05/29 02:44:17;;;;;;;0.30;0.30;;;17.40;85.30;;;;;;4158926;28;20017;-48
2021/05/29 02:46:39;;;;;;;0.20;0.20;;;17.40;85.30;;;;;;4158664;28;20077;-51
2021/05/29 02:49:01;;;;;;;0.38;0.38;;;17.40;86.20;;;;;;4161963;28;20067;-46
2021/05/29 02:51:23;;;;;;;0.20;0.20;;;17.40;85.40;;;;;;4175054;28;20525;-45
2021/05/29 02:53:44;;;;;;;0.00;0.00;;;17.40;86.30;;;;;;4174707;28;20407;-45
2021/05/29 02:56:06;;;;;;;1.35;0.52;;;17.40;85.40;;;;;;4174866;28;20231;-44
2021/05/29 02:58:28;;;;;;;0.00;0.00;;;17.30;85.40;;;;;;4173437;28;20052;-48
2021/05/29 03:00:50;;;;;;;0.00;0.00;;;17.30;85.40;;;;;;4158204;28;20427;-46
2021/05/29 03:03:13;;;;;;;0.00;0.00;;;17.40;85.50;;;;;;4158437;28;20543;-45
2021/05/29 03:05:35;;;;;;;0.20;0.20;;;17.40;85.50;;;;;;4158241;28;20060;-45
2021/05/29 03:07:56;;;;;;;0.00;0.00;;;17.30;85.40;;;;;;4158489;28;20049;-45
2021/05/29 03:10:19;;;;;;;0.30;0.30;;;17.40;85.60;;;;;;4159035;28;20496;-47
2021/05/29 03:12:42;;;;;;;0.20;0.20;;;17.30;85.50;;;;;;4174696;28;20052;-45
2021/05/29 03:15:06;;;;;;;4.55;1.00;;;17.30;85.50;;;;;;4174667;28;20631;-50
2021/05/29 03:17:28;;;;;;;0.45;0.45;;;17.30;85.50;;;;;;4174849;28;20114;-47
2021/05/29 03:19:51;;;;;;;0.00;0.00;;;17.30;86.40;;;;;;4161690;28;20123;-46
2021/05/29 03:22:12;;;;;;;0.47;0.47;;;17.30;85.60;;;;;;4158258;28;20053;-45
2021/05/29 03:24:33;;;;;;;0.00;0.00;;;17.30;85.70;;;;;;4167702;28;20589;-50
2021/05/29 03:26:56;;;;;;;0.05;0.05;;;17.30;85.70;;;;;;4174664;28;20063;-49
2021/05/29 03:29:17;;;;;;;0.00;0.00;;;17.30;85.80;;;;;;4172386;28;20809;-50
2021/05/29 03:31:39;;;;;;;0.00;0.00;;;17.30;85.80;;;;;;4174551;28;20076;-51
2021/05/29 03:34:01;;;;;;;0.00;0.00;;;17.30;85.80;;;;;;4174587;28;20060;-49
2021/05/29 03:36:24;;;;;;;0.00;0.00;;;17.30;85.80;;;;;;4174685;28;20132;-52
2021/05/29 03:38:45;;;;;;;0.10;0.10;;;17.30;85.80;;;;;;4169083;28;20539;-49
2021/05/29 03:41:07;;;;;;;0.22;0.22;;;17.20;85.80;;;;;;4158202;28;20111;-54
2021/05/29 03:43:29;;;;;;;0.00;0.00;;;17.30;85.80;;;;;;4158066;28;20751;-48
2021/05/29 03:45:50;;;;;;;0.00;0.00;;;17.30;85.90;;;;;;4160006;28;20499;-48
2021/05/29 03:48:12;;;;;;;0.65;0.65;;;17.20;85.90;;;;;;4162905;28;20099;-48
2021/05/29 03:50:38;;;;;;;0.47;0.47;;;17.20;85.90;;;;;;4161600;28;20538;-47
2021/05/29 03:53:01;;;;;;;0.00;0.00;;;17.20;85.90;;;;;;4144510;28;20056;-52
2021/05/29 03:55:23;;;;;;;1.75;0.65;;;17.20;85.90;;;;;;4146224;28;20056;-49
2021/05/29 03:57:45;;;;;;;0.00;0.00;;;17.20;86.00;;;;;;4161608;28;20057;-47
2021/05/29 04:00:08;;;;;;;1.00;1.00;;;17.20;86.00;;;;;;4176725;28;20085;-50
2021/05/29 04:02:36;;;;;;;3.33;1.27;;;17.20;86.00;;;;;;4177463;28;20123;-44
2021/05/29 04:04:58;;;;;;;0.57;0.57;;;17.20;86.00;;;;;;4176946;28;20669;-50
2021/05/29 04:07:21;;;;;;;;;;;17.20;86.00;;;;;;4177700;28;20598;-47
2021/05/29 04:09:44;;;;;;;1.75;1.55;;;17.20;86.10;;;;;;4174913;28;19925;-50
2021/05/29 04:12:06;;;;;;;0.00;0.00;;;17.20;86.20;;;;;;4177298;28;20055;-45
2021/05/29 04:14:28;;;;;;;0.00;0.00;;;17.20;86.10;;;;;;4177848;28;20503;-50
2021/05/29 04:16:50;;;;;;;2.00;1.00;;;17.20;86.20;;;;;;4177539;28;20130;-48
2021/05/29 04:19:12;;;;;;;0.38;0.38;;;17.20;86.10;;;;;;4167919;28;20164;-49
2021/05/29 04:21:34;;;;;;;1.00;1.00;;;17.20;86.20;;;;;;4160907;28;20080;-45
2021/05/29 04:23:56;;;;;;;0.85;0.85;;;17.20;86.20;;;;;;4160592;28;20056;-45
2021/05/29 04:26:19;;;;;;;0.00;0.00;;;17.20;86.20;;;;;;4160907;28;20130;-52
2021/05/29 04:28:40;;;;;;;2.72;0.35;;;17.20;86.20;;;;;;4165244;28;20488;-47
2021/05/29 04:31:03;;;;;;;0.00;0.00;;;17.20;86.20;;;;;;4174695;28;20052;-45
2021/05/29 04:33:25;;;;;;;0.22;0.22;;;17.20;86.20;;;;;;4177012;28;20095;-44
2021/05/29 04:35:46;;;;;;;0.20;0.20;;;17.20;86.30;;;;;;4177162;28;20051;-47
2021/05/29 04:38:08;;;;;;;2.05;1.35;;;17.20;86.30;;;;;;4175439;28;20134;-47
2021/05/29 04:40:30;;;;;;;0.10;0.10;;;17.20;86.30;;;;;;4160695;28;20514;-46
2021/05/29 04:42:52;;;;;;;0.80;0.80;;;17.20;86.70;;;;;;4160447;28;20488;-47
2021/05/29 04:45:15;;;;;;;0.30;0.30;;;17.20;87.40;;;;;;4160418;28;20056;-50
2021/05/29 04:47:37;;;;;;;0.00;0.00;;;17.20;87.90;;;;;;4160272;28;20056;-49
2021/05/29 04:49:59;;;;;;;1.98;0.55;;;17.20;88.10;;;;;;4162790;28;20049;-46
2021/05/29 04:52:21;;;;;;;0.05;0.05;;;17.30;88.30;;;;;;4176949;28;20444;-48
2021/05/29 04:54:43;;;;;;;0.00;0.00;;;17.30;88.40;;;;;;4176610;28;20072;-48
2021/05/29 04:57:06;;;;;;;0.15;0.15;;;17.30;88.60;;;;;;4176174;28;20053;-46
2021/05/29 04:59:28;;;;;;;0.03;0.03;;;17.30;88.60;;;;;;4164068;28;20071;-45
2021/05/29 05:01:50;;;;;;;0.00;0.00;;;17.30;88.70;;;;;;4160099;28;20045;-44
2021/05/29 05:04:11;;;;;;;0.20;0.20;;;17.30;88.70;;;;;;4160222;28;20046;-47
2021/05/29 05:06:34;;;;;;;0.30;0.30;;;17.30;88.70;;;;;;4160235;28;20049;-45
2021/05/29 05:08:56;;;;;;;0.08;0.08;;;17.30;89.00;;;;;;4167334;28;20071;-48
2021/05/29 05:11:18;;;;;;;0.00;0.00;;;17.30;88.80;;;;;;4176447;28;20052;-45
2021/05/29 05:13:40;;;;;;;0.10;0.10;;;17.30;88.80;;;;;;4176384;28;20056;-45
2021/05/29 05:16:03;;;;;;;0.43;0.43;;;17.30;88.80;;;;;;4176830;28;20060;-49
2021/05/29 05:18:24;;;;;;;0.15;0.15;;;17.30;88.80;;;;;;4172886;28;20053;-48
2021/05/29 05:20:46;;;;;;;0.00;0.00;;;17.30;89.00;;;;;;4160009;28;20555;-47
2021/05/29 05:23:08;;;;;;;0.15;0.15;;;17.30;88.90;;;;;;4162661;28;20415;-45
2021/05/29 05:25:31;;;;;;;0.10;0.10;;;17.30;88.70;;;;;;4175823;28;20499;-44
2021/05/29 05:27:52;;;;;;;0.00;0.00;;;17.30;88.60;;;;;;4176241;28;20060;-49
2021/05/29 05:30:15;;;;;;;0.00;0.00;;;17.40;89.10;;;;;;4158207;28;20117;-48
2021/05/29 05:32:38;;;;;;;0.47;0.47;;;17.40;88.70;;;;;;4162398;28;20056;-45
2021/05/29 05:35:01;;;;;;;0.00;0.00;;;17.40;88.40;;;;;;4161267;28;20148;-45
2021/05/29 05:37:22;;;;;;;0.10;0.10;;;17.40;88.20;;;;;;4175720;28;20044;-49
2021/05/29 05:39:43;;;;;;;;;;;17.40;88.00;;;;;;4175827;28;20719;-46
2021/05/29 05:42:09;;;;;;;0.10;0.10;;;17.40;88.90;;;;;;4176123;28;20292;-46
2021/05/29 05:44:30;;;;;;;0.20;0.20;;;17.30;87.90;;;;;;4175729;28;20044;-47
2021/05/29 05:46:51;;;;;;;0.28;0.28;;;17.30;87.80;;;;;;4176165;28;20620;-50
2021/05/29 05:49:14;;;;;;;0.03;0.03;;;17.30;87.80;;;;;;4165116;28;20079;-48
2021/05/29 05:51:36;;;;;;;4.28;2.08;;;17.30;87.80;;;;;;4159500;28;20512;-45
2021/05/29 05:53:58;;;;;;;0.30;0.30;;;17.30;87.70;;;;;;4157578;28;20045;-49
2021/05/29 05:56:26;;;;;;;0.10;0.10;;;17.30;87.70;;;;;;4159299;28;20095;-47
2021/05/29 05:58:47;;;;;;;0.00;0.00;;;17.20;87.50;;;;;;4159502;28;20059;-47
2021/05/29 06:01:09;;;;;;;0.00;0.00;;;17.30;87.60;;;;;;4159401;28;20091;-48
2021/05/29 06:03:31;;;;;;;0.20;0.20;;;17.30;87.90;;;;;;4158993;28;20064;-49
2021/05/29 06:05:53;;;;;;;7.78;1.30;;;17.30;88.10;;;;;;4159141;28;20054;-46
2021/05/29 06:08:15;;;;;;;0.38;0.38;;;17.30;88.10;;;;;;4157523;28;20045;-47
2021/05/29 06:10:37;;;;;;;0.10;0.10;;;17.30;88.00;;;;;;4157600;28;20504;-49
2021/05/29 06:12:59;;;;;;;0.10;0.10;;;17.30;87.90;;;;;;4158894;28;20498;-49
2021/05/29 06:18:16;;;;;;;0.30;0.30;;;17.30;91.60;;;;;;4159218;28;20060;-50
2021/05/29 06:20:42;;;;;;;3.35;1.90;;;17.30;95.40;;;;;;4174979;28;20052;-49
2021/05/29 06:23:05;;;;;;;1.55;1.00;;;17.40;97.20;;;;;;4174450;28;20052;-51
2021/05/29 06:25:27;;;;;;;4.85;1.55;;;17.40;97.30;;;;;;4172671;28;20487;-50
2021/05/29 06:27:48;;;;;;;;;;;17.50;96.80;;;;;;4174350;28;20140;-48
2021/05/29 06:30:11;;;;;;;29.02;1.40;;;17.50;96.50;;;;;;4172560;28;19936;-48
2021/05/29 06:32:33;;;;;;;0.57;0.57;;;17.50;96.20;;;;;;4175550;28;20048;-50
2021/05/29 06:34:55;;;;;;;1.27;1.27;;;17.40;95.50;;;;;;4175238;28;20053;-47
2021/05/29 06:37:16;;;;;;;0.10;0.10;;;17.40;95.00;;;;;;4175132;28;20045;-50
2021/05/29 06:39:39;;;;;;;1.08;0.30;;;17.40;94.40;;;;;;4158177;28;20046;-48
2021/05/29 06:42:00;;;;;;;0.60;0.60;;;17.40;93.80;;;;;;4143539;28;20049;-50
2021/05/29 06:44:22;;;;;;;2.47;2.38;;;17.40;93.30;;;;;;4158741;28;20051;-48
2021/05/29 06:46:44;;;;;;;0.00;0.00;;;17.40;92.70;;;;;;4156077;28;20488;-48
2021/05/29 06:49:06;;;;;;;5.88;0.90;;;17.40;92.30;;;;;;4156750;28;20132;-47
2021/05/29 06:51:34;;;;;;;0.35;0.35;;;17.40;92.10;;;;;;4158024;28;20050;-46
2021/05/29 06:53:56;;;;;;;26.70;1.55;;;17.40;91.80;;;;;;4158090;28;20450;-47
2021/05/29 06:58:59;;;;;;;0.07;0.07;;;17.40;91.40;;;;;;4155783;28;20045;-48
2021/05/29 07:01:23;;;;;;;0.00;0.00;;;17.40;91.10;;;;;;4173993;28;20059;-52
2021/05/29 07:03:45;;;;;;;0.43;0.43;;;17.40;91.30;;;;;;4175077;28;20057;-51
2021/05/29 07:06:07;;;;;;;0.70;0.45;;;17.40;90.70;;;;;;4174696;28;20073;-48
2021/05/29 07:08:28;;;;;;;1.90;1.35;;;17.40;90.60;;;;;;4158299;28;20056;-45
2021/05/29 07:10:50;;;;;;;3.10;0.40;;;17.40;90.40;;;;;;4158573;28;20049;-46
2021/05/29 07:13:13;;;;;;;1.02;1.02;;;17.40;90.20;;;;;;4157842;28;20057;-47
2021/05/29 07:15:37;;;;;;;0.30;0.30;;;17.40;90.10;;;;;;4158851;28;20132;-46
2021/05/29 07:18:04;;;;;;;0.55;0.55;;;17.40;90.30;;;;;;4156818;28;20136;-46
2021/05/29 07:20:26;;;;;;;0.20;0.20;;;17.40;89.70;;;;;;4157992;28;20049;-45
2021/05/29 07:22:47;;;;;;;0.00;0.00;;;17.50;89.30;;;;;;4158340;28;20056;-45
2021/05/29 07:25:10;;;;;;;0.40;0.40;;;17.50;89.20;;;;;;4158620;28;20469;-47
2021/05/29 07:27:32;;;;;;;3.40;1.13;;;17.40;89.20;;;;;;4159813;28;20053;-45
2021/05/29 07:29:56;;;;;;;3.13;1.40;;;17.40;89.30;;;;;;4174268;28;20483;-46
2021/05/29 07:32:17;;;;;;;0.00;0.00;;;17.40;89.10;;;;;;4158146;28;20454;-47
2021/05/29 07:34:40;;;;;;;0.10;0.10;;;17.40;88.80;;;;;;4157960;28;20546;-47
2021/05/29 07:37:01;;;;;;;0.08;0.08;;;17.40;88.80;;;;;;4172271;28;20131;-47
2021/05/29 07:39:23;;;;;;;0.55;0.55;;;17.40;88.50;;;;;;4174573;28;20569;-49
2021/05/29 07:41:45;;;;;;;0.00;0.00;;;17.40;88.40;;;;;;4174606;28;20048;-44
2021/05/29 07:44:07;;;;;;;0.30;0.30;;;17.40;87.90;;;;;;4174202;28;20194;-50
2021/05/29 07:46:30;;;;;;;2.17;1.75;;;17.40;88.10;;;;;;4172413;28;20071;-47
2021/05/29 07:48:52;;;;;;;0.35;0.35;;;17.50;87.90;;;;;;4174362;28;20049;-46
2021/05/29 07:51:16;;;;;;;0.00;0.00;;;17.50;88.30;;;;;;4174156;28;20415;-50
2021/05/29 07:53:40;;;;;;;4.38;2.97;;;17.50;86.90;;;;;;4174147;28;20156;-45
2021/05/29 07:56:04;;;;;;;1.30;0.98;;;17.50;87.00;;;;;;4164667;28;20057;-49
2021/05/29 07:58:27;;;;;;;5.72;1.08;;;17.50;87.40;;;;;;4157889;28;20077;-47
2021/05/29 08:00:51;;;;;;;0.77;0.77;;;17.50;88.00;;;;;;4157674;28;20050;-51
2021/05/29 08:03:14;;;;;;;0.68;0.68;;;17.60;86.70;;;;;;4163342;28;20049;-47
2021/05/29 08:05:36;;;;;;;0.43;0.43;;;17.60;86.10;;;;;;4174373;28;20045;-48
2021/05/29 08:07:57;;;;;;;0.17;0.17;;;17.60;85.60;;;;;;4173883;28;20095;-47
2021/05/29 08:10:19;;;;;;;1.80;1.70;;;17.60;85.50;;;;;;4174305;28;20056;-49
2021/05/29 08:12:41;;;;;;;0.55;0.55;;;17.60;85.00;;;;;;4172815;28;20518;-52
2021/05/29 08:15:03;;;;;;;0.43;0.43;;;17.60;85.00;;;;;;4160879;28;20074;-45
2021/05/29 08:17:25;;;;;;;0.13;0.13;;;17.60;84.90;;;;;;4156782;28;20050;-51
2021/05/29 08:19:47;;;;;;;0.22;0.22;;;17.60;84.70;;;;;;4157966;28;20483;-48
2021/05/29 08:22:09;;;;;;;1.05;0.98;;;17.60;84.90;;;;;;4157616;28;20104;-46
2021/05/29 08:24:31;;;;;;;0.00;0.00;;;17.60;84.80;;;;;;4157654;28;20111;-46
2021/05/29 08:26:53;;;;;;;0.20;0.20;;;17.60;84.90;;;;;;4159280;28;20454;-48
2021/05/29 08:29:14;;;;;;;0.75;0.75;;;17.60;84.70;;;;;;4158027;28;20154;-52
2021/05/29 08:31:37;;;;;;;0.30;0.30;;;17.60;84.70;;;;;;4159070;28;20091;-48
2021/05/29 08:33:58;;;;;;;0.50;0.50;;;17.60;84.50;;;;;;4160777;28;20056;-49
2021/05/29 08:36:21;;;;;;;0.43;0.43;;;17.60;84.70;;;;;;4177350;28;20053;-48
2021/05/29 08:38:45;;;;;;;4.82;0.75;;;17.60;84.60;;;;;;4161926;28;20690;-46
2021/05/29 08:41:07;;;;;;;3.72;1.25;;;17.60;84.60;;;;;;4160639;28;20046;-49
2021/05/29 08:43:28;;;;;;;0.00;0.00;;;17.70;84.50;;;;;;4160742;28;20045;-50
2021/05/29 08:45:50;;;;;;;0.00;0.00;;;17.70;84.30;;;;;;4167678;28;20414;-49
2021/05/29 08:48:13;;;;;;;1.33;0.55;;;17.70;84.20;;;;;;4175980;28;20705;-47
2021/05/29 08:50:34;;;;;;;0.00;0.00;;;17.70;83.90;;;;;;4177085;28;20053;-50
2021/05/29 08:52:57;;;;;;;0.08;0.08;;;17.70;83.70;;;;;;4176986;28;20131;-49
2021/05/29 08:55:20;;;;;;;0.00;0.00;;;17.70;83.70;;;;;;4171757;28;20077;-50
2021/05/29 08:57:43;;;;;;;0.30;0.30;;;17.70;83.60;;;;;;4160424;28;20559;-48
2021/05/29 09:00:07;;;;;;;0.13;0.13;;;17.80;83.50;;;;;;4160529;28;20121;-46
2021/05/29 09:02:30;;;;;;;0.00;0.00;;;17.70;83.30;;;;;;4176984;28;20045;-50
2021/05/29 09:05:07;;;;;;;0.75;0.75;;;17.70;83.10;;;;;;4175168;28;20057;-48
2021/05/29 09:07:28;;;;;;;0.00;0.00;;;17.70;83.00;;;;;;4173560;28;20049;-49
2021/05/29 09:10:10;;;;;;;;;;;17.80;83.10;;;;;;4174562;28;20197;-47
2021/05/29 09:12:32;;;;;;;0.00;0.00;;;17.80;83.00;;;;;;4173697;28;19938;-46
2021/05/29 09:14:55;;;;;;;0.22;0.22;;;17.80;82.80;;;;;;4163615;28;20499;-51
2021/05/29 09:17:19;;;;;;;0.00;0.00;;;17.80;82.40;;;;;;4148264;28;20057;-51
2021/05/29 09:20:03;;;;;;;1.50;1.40;;;17.80;81.90;;;;;;4160108;28;20562;-51
2021/05/29 09:22:28;;;;;;;0.08;0.08;;;17.90;81.90;;;;;;4159278;28;20099;-47
2021/05/29 09:25:13;;;;;;;0.35;0.35;;;17.90;82.00;;;;;;4159788;28;20155;-48
2021/05/29 09:27:36;;;;;;;0.30;0.30;;;17.90;81.80;;;;;;4159295;28;20095;-51
2021/05/29 09:29:57;;;;;;;0.63;0.63;;;17.90;81.60;;;;;;4159397;28;20053;-47
2021/05/29 09:32:20;;;;;;;0.47;0.47;;;17.90;81.30;;;;;;4158170;28;20049;-53
2021/05/29 09:34:45;;;;;;;0.50;0.50;;;18.00;81.40;;;;;;4159401;28;20049;-50
2021/05/29 09:37:12;;;;;;;1.13;1.13;;;18.00;81.20;;;;;;4160298;28;20120;-51
2021/05/29 09:39:36;;;;;;;0.05;0.05;;;18.00;81.60;;;;;;4159613;28;20053;-50
2021/05/29 09:42:00;;;;;;;0.00;0.00;;;18.00;81.20;;;;;;4161055;28;20480;-46
2021/05/29 09:44:27;;;;;;;0.00;0.00;;;18.10;81.00;;;;;;4168392;28;20504;-48
2021/05/29 09:46:52;;;;;;;7.88;1.20;;;18.10;80.80;;;;;;4168619;28;20059;-47
2021/05/29 09:49:14;;;;;;;0.82;0.82;;;18.10;80.70;;;;;;4175870;28;20045;-49
2021/05/29 09:51:37;;;;;;;0.20;0.20;;;18.00;80.50;;;;;;4162322;28;20143;-49
2021/05/29 09:54:06;;;;;;;0.20;0.20;;;18.00;80.30;;;;;;4169216;28;20052;-48
2021/05/29 09:56:31;;;;;;;0.00;0.00;;;18.00;80.00;;;;;;4175391;28;20080;-52
2021/05/29 09:59:00;;;;;;;0.00;0.00;;;18.00;79.90;;;;;;4163507;28;20079;-48
2021/05/29 10:01:36;;;;;;;0.13;0.13;;;18.00;80.10;;;;;;4159213;28;20056;-46
2021/05/29 10:03:57;;;;;;;0.00;0.00;;;18.00;80.30;;;;;;4159126;28;20056;-48
2021/05/29 10:06:18;;;;;;;;;;;18.00;79.50;;;;;;4159826;28;20410;-47
2021/05/29 10:08:41;;;;;;;0.10;0.10;;;17.90;79.60;;;;;;4173635;28;19982;-52
2021/05/29 10:11:05;;;;;;;0.32;0.32;;;17.90;79.80;;;;;;4163003;28;20495;-51
2021/05/29 10:13:26;;;;;;;4.97;1.38;;;17.90;79.60;;;;;;4171058;28;20044;-49
2021/05/29 10:15:48;;;;;;;;;;;17.90;79.80;;;;;;4175972;28;20084;-50
2021/05/29 10:18:11;;;;;;;0.17;0.17;;;18.00;79.80;;;;;;4175851;28;19925;-50
2021/05/29 10:20:34;;;;;;;0.45;0.45;;;17.90;78.50;;;;;;4175702;28;20049;-48
2021/05/29 10:22:56;;;;;;;0.00;0.00;;;17.90;79.00;;;;;;4175526;28;20546;-51
2021/05/29 10:25:19;;;;;;;0.00;0.00;;;17.90;79.30;;;;;;4174544;28;20048;-54
2021/05/29 10:27:43;;;;;;;0.52;0.38;;;17.90;78.80;;;;;;4175347;28;20482;-51
2021/05/29 10:30:06;;;;;;;12.02;0.88;;;17.90;78.70;;;;;;4174839;28;20048;-48
2021/05/29 10:32:29;;;;;;;2.97;0.93;;;17.90;78.70;;;;;;4175330;28;20045;-50
2021/05/29 10:34:59;;;;;;;0.03;0.03;;;18.00;78.50;;;;;;4173548;28;20479;-48
2021/05/29 10:37:32;;;;;;;1.55;0.95;;;17.90;78.50;;;;;;4165291;28;20053;-50
2021/05/29 10:39:54;;;;;;;1.10;0.85;;;17.90;79.70;;;;;;4159064;28;20059;-50
2021/05/29 10:42:30;;;;;;;0.20;0.20;;;18.00;78.70;;;;;;4159001;28;20077;-48
2021/05/29 10:45:16;;;;;;;0.00;0.00;;;17.90;77.80;;;;;;4164774;28;20056;-50
2021/05/29 10:48:06;;;;;;;0.45;0.45;;;17.90;77.80;;;;;;4175100;28;20063;-52
2021/05/29 10:50:54;;;;;;;0.20;0.20;;;18.00;78.20;;;;;;4167196;28;20080;-54
2021/05/29 10:53:37;;;;;;;1.08;0.85;;;18.00;78.20;;;;;;4158388;28;20468;-52
2021/05/29 10:56:41;;;;;;;0.00;0.00;;;18.00;78.20;;;;;;4143647;28;20052;-50
2021/05/29 10:59:10;;;;;;;0.77;0.55;;;18.10;78.20;;;;;;4121990;28;20053;-49
2021/05/29 11:01:59;;;;;;;0.00;0.00;;;18.00;77.70;;;;;;4160004;28;20104;-49
2021/05/29 11:04:23;;;;;;;0.08;0.08;;;18.00;77.40;;;;;;4172931;28;20052;-52
2021/05/29 11:06:47;;;;;;;0.03;0.03;;;18.00;77.40;;;;;;4164018;28;20053;-49
2021/05/29 11:09:10;;;;;;;0.00;0.00;;;18.00;76.80;;;;;;4158350;28;20107;-51
2021/05/29 11:11:52;;;;;;;0.00;0.00;;;18.00;76.60;;;;;;4158195;28;20497;-48
2021/05/29 11:14:14;;;;;;;;;;;18.00;76.70;;;;;;4170702;28;20053;-49
2021/05/29 11:17:09;;;;;;;0.80;0.80;;;18.00;76.30;;;;;;4158388;28;19933;-50
2021/05/29 11:19:33;;;;;;;0.00;0.00;;;18.10;76.80;;;;;;4157697;28;20057;-49
2021/05/29 11:22:03;;;;;;;3.72;0.98;;;18.00;76.30;;;;;;4156944;28;20049;-49
2021/05/29 11:24:25;;;;;;;0.00;0.00;;;18.00;76.30;;;;;;4158779;28;20053;-48
2021/05/29 11:26:46;;;;;;;0.60;0.45;;;18.10;76.10;;;;;;4158415;28;20454;-50
2021/05/29 11:29:08;;;;;;;0.00;0.00;;;18.10;76.30;;;;;;4159238;28;20558;-49
2021/05/29 11:31:30;;;;;;;0.17;0.17;;;18.10;76.50;;;;;;4158278;28;20049;-50
2021/05/29 11:33:54;;;;;;;0.00;0.00;;;18.10;76.40;;;;;;4158278;28;20045;-54
2021/05/29 11:36:29;;;;;;;0.47;0.47;;;18.10;76.90;;;;;;4158180;28;20056;-52
2021/05/29 11:38:51;;;;;;;0.75;0.75;;;18.10;76.70;;;;;;4157944;28;20069;-51
2021/05/29 11:41:19;;;;;;;0.15;0.15;;;18.10;75.90;;;;;;4158054;28;20056;-47
2021/05/29 11:43:42;;;;;;;0.00;0.00;;;18.10;76.30;;;;;;4158097;28;20251;-49
2021/05/29 11:46:05;;;;;;;0.63;0.32;;;18.20;76.60;;;;;;4174217;28;20065;-51
2021/05/29 11:48:34;;;;;;;0.63;0.63;;;18.20;77.20;;;;;;4174398;28;20049;-48
2021/05/29 11:51:09;;;;;;;0.20;0.20;;;18.20;76.60;;;;;;4163494;28;20415;-51
2021/05/29 11:53:31;;;;;;;0.00;0.00;;;18.20;76.50;;;;;;4157867;28;20126;-51
2021/05/29 11:55:54;;;;;;;0.28;0.28;;;18.20;76.40;;;;;;4173038;28;20131;-49
2021/05/29 11:58:16;;;;;;;0.00;0.00;;;18.20;77.20;;;;;;4174391;28;20059;-48
2021/05/29 12:00:38;;;;;;;0.00;0.00;;;18.30;75.10;;;;;;4172795;28;20150;-48
2021/05/29 12:02:59;;;;;;;0.00;0.00;;;18.20;74.90;;;;;;4172286;28;20486;-50
2021/05/29 12:05:22;;;;;;;0.15;0.15;;;18.20;75.30;;;;;;4174171;28;20045;-48
2021/05/29 12:08:01;;;;;;;0.25;0.25;;;18.30;75.70;;;;;;4177321;28;20098;-50
2021/05/29 12:10:23;;;;;;;0.10;0.10;;;18.30;75.80;;;;;;4175738;28;20041;-54
2021/05/29 12:12:52;;;;;;;0.75;0.73;;;18.30;75.90;;;;;;4175944;28;20487;-48
2021/05/29 12:15:14;;;;;;;0.17;0.17;;;18.40;75.80;;;;;;4165785;28;22252;-49
2021/05/29 12:17:42;;;;;;;0.38;0.38;;;18.40;75.60;;;;;;4161327;28;20140;-51
2021/05/29 12:20:04;;;;;;;0.00;0.00;;;18.40;75.70;;;;;;4162047;28;20053;-48
2021/05/29 12:22:29;;;;;;;0.20;0.20;;;18.50;75.70;;;;;;4160868;28;20420;-52
2021/05/29 12:24:53;;;;;;;0.30;0.30;;;18.50;75.30;;;;;;4161080;28;20081;-48
2021/05/29 12:27:20;;;;;;;0.95;0.90;;;18.60;75.20;;;;;;4160513;28;20057;-48
2021/05/29 12:29:42;;;;;;;0.10;0.10;;;18.60;75.00;;;;;;4167694;28;20483;-52
2021/05/29 12:32:05;;;;;;;0.28;0.28;;;18.60;75.00;;;;;;4172674;28;20087;-52
2021/05/29 12:34:29;;;;;;;1.40;1.30;;;18.60;75.00;;;;;;4160472;28;20496;-50
2021/05/29 12:36:56;;;;;;;0.43;0.43;;;18.60;75.30;;;;;;4160796;28;20135;-51
2021/05/29 12:39:17;;;;;;;0.30;0.30;;;18.60;75.40;;;;;;4160924;28;20055;-51